sensor_id;sensor_type;location;lat;lon;timestamp;P1;durP1;ratioP1;P2;durP2;ratioP2
16612;SDS011;8419;52.358;9.752;2023-01-24T00:01:14;16.63;;;9.80;;
16612;SDS011;8419;52.358;9.752;2023-01-24T00:04:01;20.33;;;11.10;;
16612;SDS011;8419;52.358;9.752;2023-01-24T00:06:46;19.47;;;10.40;;
16612;SDS011;8419;52.358;9.752;2023-01-24T00:09:32;18.97;;;9.70;;
16612;SDS011;8419;52.358;9.752;2023-01-24T00:12:17;19.13;;;9.93;;
16612;SDS011;8419;52.358;9.752;2023-01-24T00:15:02;15.37;;;10.03;;
16612;SDS011;8419;52.358;9.752;2023-01-24T00:17:48;14.57;;;9.40;;
16612;SDS011;8419;52.358;9.752;2023-01-24T00:20:33;17.00;;;9.83;;
16612;SDS011;8419;52.358;9.752;2023-01-24T00:23:19;16.17;;;9.33;;
16612;SDS011;8419;52.358;9.752;2023-01-24T00:26:04;14.43;;;8.80;;
16612;SDS011;8419;52.358;9.752;2023-01-24T00:28:49;16.67;;;8.83;;
16612;SDS011;8419;52.358;9.752;2023-01-24T00:31:34;16.53;;;9.53;;
16612;SDS011;8419;52.358;9.752;2023-01-24T00:34:20;14.17;;;8.57;;
16612;SDS011;8419;52.358;9.752;2023-01-24T00:37:06;14.63;;;8.20;;
16612;SDS011;8419;52.358;9.752;2023-01-24T00:39:51;15.67;;;8.77;;
16612;SDS011;8419;52.358;9.752;2023-01-24T00:42:36;14.02;;;8.35;;
16612;SDS011;8419;52.358;9.752;2023-01-24T00:45:22;16.33;;;8.63;;
16612;SDS011;8419;52.358;9.752;2023-01-24T00:48:07;14.10;;;7.93;;
16612;SDS011;8419;52.358;9.752;2023-01-24T00:50:53;15.53;;;8.07;;
16612;SDS011;8419;52.358;9.752;2023-01-24T00:53:39;12.87;;;7.97;;
16612;SDS011;8419;52.358;9.752;2023-01-24T00:56:24;11.30;;;7.60;;
16612;SDS011;8419;52.358;9.752;2023-01-24T00:59:09;12.87;;;8.03;;
16612;SDS011;8419;52.358;9.752;2023-01-24T01:01:55;13.40;;;7.80;;
16612;SDS011;8419;52.358;9.752;2023-01-24T01:04:40;13.40;;;7.83;;
16612;SDS011;8419;52.358;9.752;2023-01-24T01:07:28;14.90;;;7.73;;
16612;SDS011;8419;52.358;9.752;2023-01-24T01:10:13;12.03;;;7.90;;
16612;SDS011;8419;52.358;9.752;2023-01-24T01:12:58;13.03;;;7.77;;
16612;SDS011;8419;52.358;9.752;2023-01-24T01:15:44;13.30;;;8.37;;
16612;SDS011;8419;52.358;9.752;2023-01-24T01:18:30;12.87;;;8.20;;
16612;SDS011;8419;52.358;9.752;2023-01-24T01:21:17;13.37;;;7.77;;
16612;SDS011;8419;52.358;9.752;2023-01-24T01:24:04;11.87;;;7.57;;
16612;SDS011;8419;52.358;9.752;2023-01-24T01:26:49;12.40;;;7.20;;
16612;SDS011;8419;52.358;9.752;2023-01-24T01:29:34;10.33;;;6.80;;
16612;SDS011;8419;52.358;9.752;2023-01-24T01:32:20;14.70;;;8.17;;
16612;SDS011;8419;52.358;9.752;2023-01-24T01:35:05;12.93;;;8.00;;
16612;SDS011;8419;52.358;9.752;2023-01-24T01:37:52;11.77;;;7.27;;
16612;SDS011;8419;52.358;9.752;2023-01-24T01:40:37;10.00;;;6.75;;
16612;SDS011;8419;52.358;9.752;2023-01-24T01:43:24;12.60;;;7.73;;
16612;SDS011;8419;52.358;9.752;2023-01-24T01:46:14;11.30;;;6.47;;
16612;SDS011;8419;52.358;9.752;2023-01-24T01:49:03;11.03;;;6.40;;
16612;SDS011;8419;52.358;9.752;2023-01-24T01:51:50;10.43;;;6.53;;
16612;SDS011;8419;52.358;9.752;2023-01-24T01:54:41;8.63;;;5.70;;
16612;SDS011;8419;52.358;9.752;2023-01-24T01:57:30;10.43;;;6.07;;
16612;SDS011;8419;52.358;9.752;2023-01-24T02:00:18;10.33;;;6.60;;
16612;SDS011;8419;52.358;9.752;2023-01-24T02:03:05;8.17;;;5.90;;
16612;SDS011;8419;52.358;9.752;2023-01-24T02:06:18;9.83;;;6.43;;
16612;SDS011;8419;52.358;9.752;2023-01-24T02:09:15;13.80;;;6.77;;
16612;SDS011;8419;52.358;9.752;2023-01-24T02:12:05;10.23;;;6.27;;
16612;SDS011;8419;52.358;9.752;2023-01-24T02:14:55;11.57;;;6.40;;
16612;SDS011;8419;52.358;9.752;2023-01-24T02:18:04;9.03;;;5.93;;
16612;SDS011;8419;52.358;9.752;2023-01-24T02:20:51;9.80;;;5.77;;
16612;SDS011;8419;52.358;9.752;2023-01-24T02:23:39;9.53;;;5.87;;
16612;SDS011;8419;52.358;9.752;2023-01-24T02:26:33;8.17;;;4.93;;
16612;SDS011;8419;52.358;9.752;2023-01-24T02:29:18;9.37;;;5.97;;
16612;SDS011;8419;52.358;9.752;2023-01-24T02:32:06;8.67;;;5.87;;
16612;SDS011;8419;52.358;9.752;2023-01-24T02:34:52;9.97;;;6.50;;
16612;SDS011;8419;52.358;9.752;2023-01-24T02:37:37;8.90;;;5.33;;
16612;SDS011;8419;52.358;9.752;2023-01-24T02:40:25;8.63;;;5.20;;
16612;SDS011;8419;52.358;9.752;2023-01-24T02:43:14;9.07;;;5.97;;
16612;SDS011;8419;52.358;9.752;2023-01-24T02:46:01;8.95;;;5.80;;
16612;SDS011;8419;52.358;9.752;2023-01-24T02:48:49;10.20;;;6.33;;
16612;SDS011;8419;52.358;9.752;2023-01-24T02:51:36;8.10;;;5.43;;
16612;SDS011;8419;52.358;9.752;2023-01-24T02:54:44;10.03;;;6.13;;
16612;SDS011;8419;52.358;9.752;2023-01-24T02:57:29;8.60;;;5.40;;
16612;SDS011;8419;52.358;9.752;2023-01-24T03:00:33;9.67;;;6.07;;
16612;SDS011;8419;52.358;9.752;2023-01-24T03:03:19;9.00;;;5.77;;
16612;SDS011;8419;52.358;9.752;2023-01-24T03:06:05;8.63;;;5.77;;
16612;SDS011;8419;52.358;9.752;2023-01-24T03:08:50;8.93;;;5.20;;
16612;SDS011;8419;52.358;9.752;2023-01-24T03:11:36;9.70;;;5.97;;
16612;SDS011;8419;52.358;9.752;2023-01-24T03:14:21;8.83;;;5.17;;
16612;SDS011;8419;52.358;9.752;2023-01-24T03:17:25;7.97;;;5.13;;
16612;SDS011;8419;52.358;9.752;2023-01-24T03:20:29;8.73;;;5.53;;
16612;SDS011;8419;52.358;9.752;2023-01-24T03:23:33;8.57;;;5.50;;
16612;SDS011;8419;52.358;9.752;2023-01-24T03:26:36;10.27;;;5.67;;
16612;SDS011;8419;52.358;9.752;2023-01-24T03:29:40;9.43;;;5.40;;
16612;SDS011;8419;52.358;9.752;2023-01-24T03:32:44;8.67;;;5.83;;
16612;SDS011;8419;52.358;9.752;2023-01-24T03:35:48;8.40;;;5.53;;
16612;SDS011;8419;52.358;9.752;2023-01-24T03:38:42;10.30;;;6.37;;
16612;SDS011;8419;52.358;9.752;2023-01-24T03:41:47;8.00;;;5.83;;
16612;SDS011;8419;52.358;9.752;2023-01-24T03:44:32;7.30;;;5.00;;
16612;SDS011;8419;52.358;9.752;2023-01-24T03:47:19;11.63;;;6.30;;
16612;SDS011;8419;52.358;9.752;2023-01-24T03:50:05;7.97;;;5.37;;
16612;SDS011;8419;52.358;9.752;2023-01-24T03:53:10;7.87;;;5.07;;
16612;SDS011;8419;52.358;9.752;2023-01-24T03:55:56;11.03;;;5.43;;
16612;SDS011;8419;52.358;9.752;2023-01-24T03:58:43;8.47;;;5.53;;
16612;SDS011;8419;52.358;9.752;2023-01-24T04:01:28;10.73;;;5.47;;
16612;SDS011;8419;52.358;9.752;2023-01-24T04:04:14;9.07;;;5.57;;
16612;SDS011;8419;52.358;9.752;2023-01-24T04:06:59;8.27;;;5.57;;
16612;SDS011;8419;52.358;9.752;2023-01-24T04:09:45;7.33;;;5.03;;
16612;SDS011;8419;52.358;9.752;2023-01-24T04:12:30;8.43;;;5.37;;
16612;SDS011;8419;52.358;9.752;2023-01-24T04:15:16;8.37;;;5.67;;
16612;SDS011;8419;52.358;9.752;2023-01-24T04:18:05;8.33;;;5.50;;
16612;SDS011;8419;52.358;9.752;2023-01-24T04:20:52;8.33;;;5.53;;
16612;SDS011;8419;52.358;9.752;2023-01-24T04:23:37;7.33;;;4.90;;
16612;SDS011;8419;52.358;9.752;2023-01-24T04:26:22;9.97;;;5.50;;
16612;SDS011;8419;52.358;9.752;2023-01-24T04:29:08;9.50;;;5.10;;
16612;SDS011;8419;52.358;9.752;2023-01-24T04:31:53;9.93;;;5.97;;
16612;SDS011;8419;52.358;9.752;2023-01-24T04:34:38;9.00;;;5.10;;
16612;SDS011;8419;52.358;9.752;2023-01-24T04:37:23;10.77;;;5.40;;
16612;SDS011;8419;52.358;9.752;2023-01-24T04:40:10;10.83;;;5.87;;
16612;SDS011;8419;52.358;9.752;2023-01-24T04:42:57;7.70;;;4.70;;
16612;SDS011;8419;52.358;9.752;2023-01-24T04:45:42;9.03;;;5.37;;
16612;SDS011;8419;52.358;9.752;2023-01-24T04:48:30;7.63;;;5.00;;
16612;SDS011;8419;52.358;9.752;2023-01-24T04:51:15;8.60;;;5.17;;
16612;SDS011;8419;52.358;9.752;2023-01-24T04:54:01;9.07;;;5.43;;
16612;SDS011;8419;52.358;9.752;2023-01-24T04:56:46;8.77;;;5.53;;
16612;SDS011;8419;52.358;9.752;2023-01-24T04:59:31;6.80;;;5.23;;
16612;SDS011;8419;52.358;9.752;2023-01-24T05:02:17;8.80;;;5.07;;
16612;SDS011;8419;52.358;9.752;2023-01-24T05:05:02;12.67;;;5.57;;
16612;SDS011;8419;52.358;9.752;2023-01-24T05:07:48;7.93;;;5.37;;
16612;SDS011;8419;52.358;9.752;2023-01-24T05:10:33;13.90;;;6.70;;
16612;SDS011;8419;52.358;9.752;2023-01-24T05:13:19;8.10;;;4.80;;
16612;SDS011;8419;52.358;9.752;2023-01-24T05:16:04;7.50;;;4.30;;
16612;SDS011;8419;52.358;9.752;2023-01-24T05:18:50;7.23;;;4.93;;
16612;SDS011;8419;52.358;9.752;2023-01-24T05:21:36;6.97;;;4.73;;
16612;SDS011;8419;52.358;9.752;2023-01-24T05:24:21;7.57;;;4.53;;
16612;SDS011;8419;52.358;9.752;2023-01-24T05:27:06;6.93;;;4.80;;
16612;SDS011;8419;52.358;9.752;2023-01-24T05:29:52;7.30;;;4.77;;
16612;SDS011;8419;52.358;9.752;2023-01-24T05:32:38;8.13;;;5.03;;
16612;SDS011;8419;52.358;9.752;2023-01-24T05:35:24;7.07;;;4.37;;
16612;SDS011;8419;52.358;9.752;2023-01-24T05:38:09;7.73;;;4.97;;
16612;SDS011;8419;52.358;9.752;2023-01-24T05:40:58;7.87;;;4.63;;
16612;SDS011;8419;52.358;9.752;2023-01-24T05:43:44;9.47;;;5.03;;
16612;SDS011;8419;52.358;9.752;2023-01-24T05:46:31;5.70;;;4.50;;
16612;SDS011;8419;52.358;9.752;2023-01-24T05:49:16;9.37;;;4.80;;
16612;SDS011;8419;52.358;9.752;2023-01-24T05:52:02;5.27;;;4.20;;
16612;SDS011;8419;52.358;9.752;2023-01-24T05:54:47;7.80;;;4.60;;
16612;SDS011;8419;52.358;9.752;2023-01-24T05:57:33;6.80;;;4.03;;
16612;SDS011;8419;52.358;9.752;2023-01-24T06:00:21;9.33;;;4.67;;
16612;SDS011;8419;52.358;9.752;2023-01-24T06:03:07;7.57;;;4.83;;
16612;SDS011;8419;52.358;9.752;2023-01-24T06:05:53;7.50;;;5.23;;
16612;SDS011;8419;52.358;9.752;2023-01-24T06:08:39;9.30;;;5.53;;
16612;SDS011;8419;52.358;9.752;2023-01-24T06:11:25;7.50;;;5.00;;
16612;SDS011;8419;52.358;9.752;2023-01-24T06:14:14;6.43;;;4.43;;
16612;SDS011;8419;52.358;9.752;2023-01-24T06:16:59;8.70;;;5.20;;
16612;SDS011;8419;52.358;9.752;2023-01-24T06:19:45;7.50;;;5.03;;
16612;SDS011;8419;52.358;9.752;2023-01-24T06:22:32;9.77;;;4.90;;
16612;SDS011;8419;52.358;9.752;2023-01-24T06:25:26;8.33;;;3.97;;
16612;SDS011;8419;52.358;9.752;2023-01-24T06:28:12;7.13;;;4.70;;
16612;SDS011;8419;52.358;9.752;2023-01-24T06:31:01;6.17;;;4.57;;
16612;SDS011;8419;52.358;9.752;2023-01-24T06:34:03;8.70;;;4.67;;
16612;SDS011;8419;52.358;9.752;2023-01-24T06:37:02;6.67;;;4.37;;
16612;SDS011;8419;52.358;9.752;2023-01-24T06:39:55;10.13;;;4.43;;
16612;SDS011;8419;52.358;9.752;2023-01-24T06:42:42;12.37;;;4.30;;
16612;SDS011;8419;52.358;9.752;2023-01-24T06:45:28;6.07;;;4.03;;
16612;SDS011;8419;52.358;9.752;2023-01-24T06:48:14;4.67;;;3.97;;
16612;SDS011;8419;52.358;9.752;2023-01-24T06:51:00;6.87;;;4.87;;
16612;SDS011;8419;52.358;9.752;2023-01-24T06:53:45;9.50;;;4.73;;
16612;SDS011;8419;52.358;9.752;2023-01-24T06:56:32;7.13;;;4.77;;
16612;SDS011;8419;52.358;9.752;2023-01-24T06:59:21;6.30;;;4.33;;
16612;SDS011;8419;52.358;9.752;2023-01-24T07:02:08;6.13;;;3.90;;
16612;SDS011;8419;52.358;9.752;2023-01-24T07:04:54;7.40;;;4.23;;
16612;SDS011;8419;52.358;9.752;2023-01-24T07:07:40;7.40;;;5.27;;
16612;SDS011;8419;52.358;9.752;2023-01-24T07:10:25;7.33;;;4.60;;
16612;SDS011;8419;52.358;9.752;2023-01-24T07:13:10;4.47;;;3.30;;
16612;SDS011;8419;52.358;9.752;2023-01-24T07:15:56;6.83;;;4.60;;
16612;SDS011;8419;52.358;9.752;2023-01-24T07:18:45;5.33;;;4.17;;
16612;SDS011;8419;52.358;9.752;2023-01-24T07:21:32;11.07;;;4.40;;
16612;SDS011;8419;52.358;9.752;2023-01-24T07:24:22;5.13;;;3.93;;
16612;SDS011;8419;52.358;9.752;2023-01-24T07:27:11;7.10;;;4.03;;
16612;SDS011;8419;52.358;9.752;2023-01-24T07:29:57;6.40;;;4.27;;
16612;SDS011;8419;52.358;9.752;2023-01-24T07:32:43;5.60;;;3.87;;
16612;SDS011;8419;52.358;9.752;2023-01-24T07:35:29;6.20;;;3.63;;
16612;SDS011;8419;52.358;9.752;2023-01-24T07:38:14;6.07;;;3.70;;
16612;SDS011;8419;52.358;9.752;2023-01-24T07:40:59;7.80;;;4.37;;
16612;SDS011;8419;52.358;9.752;2023-01-24T07:43:50;5.50;;;3.70;;
16612;SDS011;8419;52.358;9.752;2023-01-24T07:46:36;5.60;;;3.67;;
16612;SDS011;8419;52.358;9.752;2023-01-24T07:49:21;4.53;;;3.50;;
16612;SDS011;8419;52.358;9.752;2023-01-24T07:52:07;5.17;;;4.17;;
16612;SDS011;8419;52.358;9.752;2023-01-24T07:54:52;6.33;;;4.33;;
16612;SDS011;8419;52.358;9.752;2023-01-24T07:57:37;5.57;;;3.63;;
16612;SDS011;8419;52.358;9.752;2023-01-24T08:00:22;6.70;;;4.17;;
16612;SDS011;8419;52.358;9.752;2023-01-24T08:03:08;4.70;;;3.53;;
16612;SDS011;8419;52.358;9.752;2023-01-24T08:05:54;4.10;;;3.20;;
16612;SDS011;8419;52.358;9.752;2023-01-24T08:08:39;5.63;;;4.00;;
16612;SDS011;8419;52.358;9.752;2023-01-24T08:11:25;10.67;;;4.20;;
16612;SDS011;8419;52.358;9.752;2023-01-24T08:14:10;6.70;;;3.70;;
16612;SDS011;8419;52.358;9.752;2023-01-24T08:16:57;4.37;;;3.67;;
16612;SDS011;8419;52.358;9.752;2023-01-24T08:19:43;8.07;;;3.60;;
16612;SDS011;8419;52.358;9.752;2023-01-24T08:22:28;8.33;;;3.83;;
16612;SDS011;8419;52.358;9.752;2023-01-24T08:25:14;5.03;;;3.47;;
16612;SDS011;8419;52.358;9.752;2023-01-24T08:27:59;6.73;;;3.70;;
16612;SDS011;8419;52.358;9.752;2023-01-24T08:30:45;8.43;;;3.80;;
16612;SDS011;8419;52.358;9.752;2023-01-24T08:33:30;5.33;;;3.60;;
16612;SDS011;8419;52.358;9.752;2023-01-24T08:36:21;7.07;;;3.50;;
16612;SDS011;8419;52.358;9.752;2023-01-24T08:39:07;7.10;;;4.27;;
16612;SDS011;8419;52.358;9.752;2023-01-24T08:41:53;4.40;;;3.20;;
16612;SDS011;8419;52.358;9.752;2023-01-24T08:44:38;4.93;;;3.77;;
16612;SDS011;8419;52.358;9.752;2023-01-24T08:47:23;6.40;;;4.93;;
16612;SDS011;8419;52.358;9.752;2023-01-24T08:50:10;6.77;;;3.50;;
16612;SDS011;8419;52.358;9.752;2023-01-24T08:52:58;6.90;;;3.40;;
16612;SDS011;8419;52.358;9.752;2023-01-24T08:55:44;5.03;;;4.03;;
16612;SDS011;8419;52.358;9.752;2023-01-24T08:58:31;4.40;;;3.27;;
16612;SDS011;8419;52.358;9.752;2023-01-24T09:01:17;4.63;;;3.57;;
16612;SDS011;8419;52.358;9.752;2023-01-24T09:04:04;5.77;;;3.40;;
16612;SDS011;8419;52.358;9.752;2023-01-24T09:06:52;5.23;;;3.60;;
16612;SDS011;8419;52.358;9.752;2023-01-24T09:09:38;5.10;;;3.50;;
16612;SDS011;8419;52.358;9.752;2023-01-24T09:12:24;5.57;;;3.37;;
16612;SDS011;8419;52.358;9.752;2023-01-24T09:15:10;7.63;;;4.30;;
16612;SDS011;8419;52.358;9.752;2023-01-24T09:17:57;6.27;;;3.27;;
16612;SDS011;8419;52.358;9.752;2023-01-24T09:20:45;5.40;;;2.80;;
16612;SDS011;8419;52.358;9.752;2023-01-24T09:23:30;4.47;;;3.60;;
16612;SDS011;8419;52.358;9.752;2023-01-24T09:26:16;4.57;;;3.70;;
16612;SDS011;8419;52.358;9.752;2023-01-24T09:29:01;9.27;;;4.17;;
16612;SDS011;8419;52.358;9.752;2023-01-24T09:31:46;6.20;;;4.10;;
16612;SDS011;8419;52.358;9.752;2023-01-24T09:34:32;5.90;;;3.87;;
16612;SDS011;8419;52.358;9.752;2023-01-24T09:37:18;5.67;;;3.47;;
16612;SDS011;8419;52.358;9.752;2023-01-24T09:40:09;4.90;;;3.87;;
16612;SDS011;8419;52.358;9.752;2023-01-24T09:43:06;4.87;;;3.50;;
16612;SDS011;8419;52.358;9.752;2023-01-24T09:46:09;6.70;;;4.47;;
16612;SDS011;8419;52.358;9.752;2023-01-24T09:49:17;5.87;;;3.80;;
16612;SDS011;8419;52.358;9.752;2023-01-24T09:52:12;4.83;;;3.67;;
16612;SDS011;8419;52.358;9.752;2023-01-24T09:55:08;5.93;;;3.07;;
16612;SDS011;8419;52.358;9.752;2023-01-24T09:58:00;4.37;;;3.60;;
16612;SDS011;8419;52.358;9.752;2023-01-24T10:00:49;5.37;;;3.53;;
16612;SDS011;8419;52.358;9.752;2023-01-24T10:03:35;6.47;;;3.83;;
16612;SDS011;8419;52.358;9.752;2023-01-24T10:06:23;6.33;;;3.40;;
16612;SDS011;8419;52.358;9.752;2023-01-24T10:09:12;4.53;;;3.57;;
16612;SDS011;8419;52.358;9.752;2023-01-24T10:12:06;6.10;;;3.60;;
16612;SDS011;8419;52.358;9.752;2023-01-24T10:15:02;4.90;;;3.10;;
16612;SDS011;8419;52.358;9.752;2023-01-24T10:18:10;6.47;;;3.57;;
16612;SDS011;8419;52.358;9.752;2023-01-24T10:21:16;5.20;;;3.40;;
16612;SDS011;8419;52.358;9.752;2023-01-24T10:24:15;4.23;;;3.40;;
16612;SDS011;8419;52.358;9.752;2023-01-24T10:27:09;6.27;;;3.43;;
16612;SDS011;8419;52.358;9.752;2023-01-24T10:30:11;9.67;;;3.90;;
16612;SDS011;8419;52.358;9.752;2023-01-24T10:33:01;4.37;;;3.30;;
16612;SDS011;8419;52.358;9.752;2023-01-24T10:35:57;3.30;;;2.93;;
16612;SDS011;8419;52.358;9.752;2023-01-24T10:38:45;4.17;;;3.40;;
16612;SDS011;8419;52.358;9.752;2023-01-24T10:41:31;6.40;;;3.53;;
16612;SDS011;8419;52.358;9.752;2023-01-24T10:44:18;3.70;;;3.30;;
16612;SDS011;8419;52.358;9.752;2023-01-24T10:47:15;20.80;;;10.50;;
16612;SDS011;8419;52.358;9.752;2023-01-24T10:50:33;5.67;;;2.90;;
16612;SDS011;8419;52.358;9.752;2023-01-24T10:53:24;11.03;;;3.97;;
16612;SDS011;8419;52.358;9.752;2023-01-24T10:56:11;5.77;;;4.20;;
16612;SDS011;8419;52.358;9.752;2023-01-24T10:58:58;5.85;;;3.20;;
16612;SDS011;8419;52.358;9.752;2023-01-24T11:01:48;6.30;;;3.03;;
16612;SDS011;8419;52.358;9.752;2023-01-24T11:04:34;4.40;;;2.90;;
16612;SDS011;8419;52.358;9.752;2023-01-24T11:07:25;3.43;;;3.10;;
16612;SDS011;8419;52.358;9.752;2023-01-24T11:10:18;3.92;;;2.72;;
16612;SDS011;8419;52.358;9.752;2023-01-24T11:13:25;6.13;;;3.00;;
16612;SDS011;8419;52.358;9.752;2023-01-24T11:16:19;5.10;;;2.77;;
16612;SDS011;8419;52.358;9.752;2023-01-24T11:19:20;6.00;;;2.60;;
16612;SDS011;8419;52.358;9.752;2023-01-24T11:22:19;3.40;;;2.35;;
16612;SDS011;8419;52.358;9.752;2023-01-24T11:25:11;3.67;;;2.72;;
16612;SDS011;8419;52.358;9.752;2023-01-24T11:27:58;7.50;;;2.67;;
16612;SDS011;8419;52.358;9.752;2023-01-24T11:30:46;5.23;;;2.77;;
16612;SDS011;8419;52.358;9.752;2023-01-24T11:33:43;5.43;;;2.58;;
16612;SDS011;8419;52.358;9.752;2023-01-24T11:36:43;5.55;;;2.72;;
16612;SDS011;8419;52.358;9.752;2023-01-24T11:39:41;4.40;;;2.72;;
16612;SDS011;8419;52.358;9.752;2023-01-24T11:42:34;7.20;;;2.90;;
16612;SDS011;8419;52.358;9.752;2023-01-24T11:45:27;3.93;;;2.67;;
16612;SDS011;8419;52.358;9.752;2023-01-24T11:48:25;4.57;;;2.67;;
16612;SDS011;8419;52.358;9.752;2023-01-24T11:51:15;5.75;;;3.00;;
16612;SDS011;8419;52.358;9.752;2023-01-24T11:54:12;5.10;;;2.83;;
16612;SDS011;8419;52.358;9.752;2023-01-24T11:57:08;4.67;;;3.40;;
16612;SDS011;8419;52.358;9.752;2023-01-24T12:00:08;5.32;;;3.20;;
16612;SDS011;8419;52.358;9.752;2023-01-24T12:03:13;4.00;;;2.73;;
16612;SDS011;8419;52.358;9.752;2023-01-24T12:06:11;5.33;;;2.70;;
16612;SDS011;8419;52.358;9.752;2023-01-24T12:09:11;4.97;;;2.73;;
16612;SDS011;8419;52.358;9.752;2023-01-24T12:12:04;5.50;;;3.70;;
16612;SDS011;8419;52.358;9.752;2023-01-24T12:15:17;5.00;;;3.07;;
16612;SDS011;8419;52.358;9.752;2023-01-24T12:18:16;8.57;;;2.97;;
16612;SDS011;8419;52.358;9.752;2023-01-24T12:21:25;5.90;;;3.17;;
16612;SDS011;8419;52.358;9.752;2023-01-24T12:24:12;3.43;;;2.80;;
16612;SDS011;8419;52.358;9.752;2023-01-24T12:27:06;5.20;;;2.73;;
16612;SDS011;8419;52.358;9.752;2023-01-24T12:29:59;2.85;;;2.47;;
16612;SDS011;8419;52.358;9.752;2023-01-24T12:32:48;4.03;;;2.80;;
16612;SDS011;8419;52.358;9.752;2023-01-24T12:35:38;2.83;;;2.30;;
16612;SDS011;8419;52.358;9.752;2023-01-24T12:38:28;3.55;;;2.65;;
16612;SDS011;8419;52.358;9.752;2023-01-24T12:41:23;4.83;;;2.80;;
16612;SDS011;8419;52.358;9.752;2023-01-24T12:44:18;4.45;;;3.37;;
16612;SDS011;8419;52.358;9.752;2023-01-24T12:47:14;4.80;;;2.57;;
16612;SDS011;8419;52.358;9.752;2023-01-24T12:50:11;3.78;;;2.70;;
16612;SDS011;8419;52.358;9.752;2023-01-24T12:53:05;4.50;;;3.00;;
16612;SDS011;8419;52.358;9.752;2023-01-24T12:56:01;4.47;;;3.28;;
16612;SDS011;8419;52.358;9.752;2023-01-24T12:58:49;3.33;;;2.70;;
16612;SDS011;8419;52.358;9.752;2023-01-24T13:01:46;5.30;;;3.30;;
16612;SDS011;8419;52.358;9.752;2023-01-24T13:04:54;4.53;;;3.20;;
16612;SDS011;8419;52.358;9.752;2023-01-24T13:07:53;2.80;;;2.50;;
16612;SDS011;8419;52.358;9.752;2023-01-24T13:10:52;3.33;;;2.60;;
16612;SDS011;8419;52.358;9.752;2023-01-24T13:13:55;4.22;;;3.45;;
16612;SDS011;8419;52.358;9.752;2023-01-24T13:17:00;4.07;;;3.03;;
16612;SDS011;8419;52.358;9.752;2023-01-24T13:20:12;5.77;;;3.33;;
16612;SDS011;8419;52.358;9.752;2023-01-24T13:23:29;13.10;;;4.43;;
16612;SDS011;8419;52.358;9.752;2023-01-24T13:26:35;5.27;;;3.60;;
16612;SDS011;8419;52.358;9.752;2023-01-24T13:29:33;6.57;;;3.40;;
16612;SDS011;8419;52.358;9.752;2023-01-24T13:32:27;5.37;;;3.73;;
16612;SDS011;8419;52.358;9.752;2023-01-24T13:35:16;4.27;;;3.03;;
16612;SDS011;8419;52.358;9.752;2023-01-24T13:38:03;11.27;;;4.00;;
16612;SDS011;8419;52.358;9.752;2023-01-24T13:41:00;5.97;;;3.60;;
16612;SDS011;8419;52.358;9.752;2023-01-24T13:43:58;5.43;;;3.13;;
16612;SDS011;8419;52.358;9.752;2023-01-24T13:46:58;3.37;;;2.87;;
16612;SDS011;8419;52.358;9.752;2023-01-24T13:49:46;5.93;;;3.47;;
16612;SDS011;8419;52.358;9.752;2023-01-24T13:53:02;6.13;;;3.17;;
16612;SDS011;8419;52.358;9.752;2023-01-24T13:56:01;5.70;;;3.20;;
16612;SDS011;8419;52.358;9.752;2023-01-24T13:58:48;4.93;;;3.53;;
16612;SDS011;8419;52.358;9.752;2023-01-24T14:01:35;6.97;;;3.83;;
16612;SDS011;8419;52.358;9.752;2023-01-24T14:04:39;4.77;;;3.70;;
16612;SDS011;8419;52.358;9.752;2023-01-24T14:07:28;7.10;;;3.80;;
16612;SDS011;8419;52.358;9.752;2023-01-24T14:10:19;5.53;;;3.70;;
16612;SDS011;8419;52.358;9.752;2023-01-24T14:17:02;5.57;;;3.83;;
16612;SDS011;8419;52.358;9.752;2023-01-24T14:20:14;3.63;;;3.10;;
16612;SDS011;8419;52.358;9.752;2023-01-24T14:23:10;11.17;;;6.10;;
16612;SDS011;8419;52.358;9.752;2023-01-24T14:26:02;6.47;;;4.60;;
16612;SDS011;8419;52.358;9.752;2023-01-24T14:28:51;10.13;;;4.40;;
16612;SDS011;8419;52.358;9.752;2023-01-24T14:31:39;5.63;;;3.80;;
16612;SDS011;8419;52.358;9.752;2023-01-24T14:34:30;8.80;;;3.60;;
16612;SDS011;8419;52.358;9.752;2023-01-24T14:37:24;6.03;;;3.33;;
16612;SDS011;8419;52.358;9.752;2023-01-24T14:40:21;6.85;;;3.67;;
16612;SDS011;8419;52.358;9.752;2023-01-24T14:43:09;7.33;;;3.70;;
16612;SDS011;8419;52.358;9.752;2023-01-24T14:46:03;12.23;;;5.57;;
16612;SDS011;8419;52.358;9.752;2023-01-24T14:48:54;7.70;;;4.57;;
16612;SDS011;8419;52.358;9.752;2023-01-24T14:51:42;6.83;;;4.30;;
16612;SDS011;8419;52.358;9.752;2023-01-24T14:54:29;7.87;;;4.67;;
16612;SDS011;8419;52.358;9.752;2023-01-24T14:57:22;8.57;;;4.40;;
16612;SDS011;8419;52.358;9.752;2023-01-24T15:00:13;6.23;;;4.27;;
16612;SDS011;8419;52.358;9.752;2023-01-24T15:03:01;6.50;;;4.40;;
16612;SDS011;8419;52.358;9.752;2023-01-24T15:05:53;8.87;;;4.90;;
16612;SDS011;8419;52.358;9.752;2023-01-24T15:08:44;5.57;;;4.53;;
16612;SDS011;8419;52.358;9.752;2023-01-24T15:11:30;6.30;;;4.60;;
16612;SDS011;8419;52.358;9.752;2023-01-24T15:14:18;7.23;;;4.50;;
16612;SDS011;8419;52.358;9.752;2023-01-24T15:17:04;6.30;;;4.30;;
16612;SDS011;8419;52.358;9.752;2023-01-24T15:20:06;6.60;;;4.50;;
16612;SDS011;8419;52.358;9.752;2023-01-24T15:22:56;8.37;;;5.03;;
16612;SDS011;8419;52.358;9.752;2023-01-24T15:25:43;6.77;;;4.70;;
16612;SDS011;8419;52.358;9.752;2023-01-24T15:28:30;10.70;;;4.63;;
16612;SDS011;8419;52.358;9.752;2023-01-24T15:31:17;6.90;;;4.83;;
16612;SDS011;8419;52.358;9.752;2023-01-24T15:34:16;7.03;;;4.50;;
16612;SDS011;8419;52.358;9.752;2023-01-24T15:37:04;7.67;;;4.43;;
16612;SDS011;8419;52.358;9.752;2023-01-24T15:39:56;6.00;;;4.27;;
16612;SDS011;8419;52.358;9.752;2023-01-24T15:42:43;5.27;;;4.17;;
16612;SDS011;8419;52.358;9.752;2023-01-24T15:45:55;5.97;;;4.73;;
16612;SDS011;8419;52.358;9.752;2023-01-24T15:49:01;6.30;;;4.87;;
16612;SDS011;8419;52.358;9.752;2023-01-24T15:51:59;6.67;;;4.10;;
16612;SDS011;8419;52.358;9.752;2023-01-24T15:54:47;6.70;;;4.70;;
16612;SDS011;8419;52.358;9.752;2023-01-24T15:57:37;9.73;;;5.50;;
16612;SDS011;8419;52.358;9.752;2023-01-24T16:00:23;8.00;;;4.70;;
16612;SDS011;8419;52.358;9.752;2023-01-24T16:03:10;5.77;;;4.43;;
16612;SDS011;8419;52.358;9.752;2023-01-24T16:05:55;6.03;;;4.40;;
16612;SDS011;8419;52.358;9.752;2023-01-24T16:08:40;5.20;;;4.17;;
16612;SDS011;8419;52.358;9.752;2023-01-24T16:11:27;6.57;;;4.53;;
16612;SDS011;8419;52.358;9.752;2023-01-24T16:14:13;6.63;;;4.40;;
16612;SDS011;8419;52.358;9.752;2023-01-24T16:17:02;7.43;;;4.37;;
16612;SDS011;8419;52.358;9.752;2023-01-24T16:19:48;7.07;;;4.57;;
16612;SDS011;8419;52.358;9.752;2023-01-24T16:22:34;12.20;;;4.93;;
16612;SDS011;8419;52.358;9.752;2023-01-24T16:25:19;6.13;;;4.33;;
16612;SDS011;8419;52.358;9.752;2023-01-24T16:28:04;6.77;;;4.80;;
16612;SDS011;8419;52.358;9.752;2023-01-24T16:30:50;7.27;;;4.10;;
16612;SDS011;8419;52.358;9.752;2023-01-24T16:33:36;7.97;;;4.83;;
16612;SDS011;8419;52.358;9.752;2023-01-24T16:36:21;8.20;;;5.27;;
16612;SDS011;8419;52.358;9.752;2023-01-24T16:39:09;5.30;;;4.53;;
16612;SDS011;8419;52.358;9.752;2023-01-24T16:42:01;6.23;;;4.90;;
16612;SDS011;8419;52.358;9.752;2023-01-24T16:44:53;7.53;;;5.20;;
16612;SDS011;8419;52.358;9.752;2023-01-24T16:47:39;8.63;;;5.47;;
16612;SDS011;8419;52.358;9.752;2023-01-24T16:50:25;8.30;;;5.77;;
16612;SDS011;8419;52.358;9.752;2023-01-24T16:53:12;18.37;;;11.60;;
16612;SDS011;8419;52.358;9.752;2023-01-24T16:55:59;12.67;;;8.40;;
16612;SDS011;8419;52.358;9.752;2023-01-24T16:58:44;8.10;;;5.40;;
16612;SDS011;8419;52.358;9.752;2023-01-24T17:01:29;7.17;;;4.77;;
16612;SDS011;8419;52.358;9.752;2023-01-24T17:04:14;10.17;;;5.57;;
16612;SDS011;8419;52.358;9.752;2023-01-24T17:07:02;8.27;;;5.20;;
16612;SDS011;8419;52.358;9.752;2023-01-24T17:09:47;8.93;;;5.67;;
16612;SDS011;8419;52.358;9.752;2023-01-24T17:12:33;8.43;;;5.03;;
16612;SDS011;8419;52.358;9.752;2023-01-24T17:15:18;7.93;;;5.27;;
16612;SDS011;8419;52.358;9.752;2023-01-24T17:18:04;10.27;;;5.50;;
16612;SDS011;8419;52.358;9.752;2023-01-24T17:20:50;8.77;;;6.30;;